Hlavní strana
METAR-TAF:

METAR-TAF

Letiště :

Gabès, Tunisko

zeměpisná šířka: 33-53N, zeměpisná délka: 010-06E, výška: 4 m

Aktuální stav počasí

Zpráva byla vytvořena před 1 hodinou a 0 minutami, v 04:00 UTC
Východní vítr 4 kt
Teplota 11°C
Vlhkost vzduchu 94%
Tlak 1023 hPa
Viditelnost 10 km a více
Žádná oblačnost pod 1500 m, nevyskytují se cumulonimby.

METAR: DTTG 070400Z 08004KT CAVOK 11/10 Q1023 NOSIG

Čas: 06:00 (05:00 UTC)

Předpověď počasí

Zpráva byla vytvořena před 2 hodinami a 0 minutami, v 03:00 UTC
Předpověď platná od 07 v 04 UTC do 07 v 13 UTC
Východoseverovýchodní vítr 6 kt
Viditelnost 10 km a více
Skoro jasno ve výšce 3000 ft
Pravděpodobnost 30%
od 07 v 04 UTC do 07 v 07 UTC
Viditelnost: 2000 m
kouřmo

TAF: DTTG 070300Z 0704/0713 07006KT 9999 FEW030 PROB30 0704/0707 2000 BR

Stav a předpovědi počasí z více než 4 000 letišť (zprávy METAR a TAF).

Červené a žluté tečky na mapě představují dostupné meteorologické stanice.

Když kurzor umístíte na tečku, zobrazí se název stanice.

Pak kliknutím zobrazíte stav a předpověď počasí.

Chcete-li změnit mapu, kliknutím na zelené tlačítko se znaménkem +mapu přiblížíte, kliknutím na zelené tlačítko se znaménkem – mapu oddálíte a kliknutím na zelené šipky přejdete na sousední mapy.


METAR-TAF: